Time;durP1;ratioP1;P1;durP2;ratioP2;P2;SDS_P1;SDS_P2;PMS_P1;PMS_P2;Temp;Humidity;BMP_temperature;BMP_pressure;BME280_temperature;BME280_humidity;BME280_pressure;Samples;Min_cycle;Max_cycle;Signal;HPM_P1;HPM_P2
2022/05/14 00:01:10;;;;;;;;;;;;;;;13.41;100.00;99357.55;1728510;83;20141;-69
2022/05/14 00:03:38;;;;;;;;;;;;;;;13.40;100.00;99332.77;1728134;83;20181;-70
2022/05/14 00:06:06;;;;;;;;;;;;;;;13.40;100.00;99311.91;1728385;83;20161;-69
2022/05/14 00:08:34;;;;;;;;;;;;;;;13.38;100.00;99302.28;1728194;83;20137;-69
2022/05/14 00:13:46;;;;;;;;;;;;;;;13.30;100.00;99280.22;1728195;83;20195;-69
2022/05/14 00:16:13;;;;;;;;;;;;;;;13.26;100.00;99266.23;1728319;83;20160;-70
2022/05/14 00:18:41;;;;;;;;;;;;;;;13.22;100.00;99262.23;1728193;83;20125;-69
2022/05/14 00:21:08;;;;;;;;;;;;;;;13.20;100.00;99260.78;1728352;83;20153;-69
2022/05/14 00:23:35;;;;;;;;;;;;;;;13.18;100.00;99250.66;1728146;83;20132;-69
2022/05/14 00:26:02;;;;;;;;;;;;;;;13.15;100.00;99256.49;1728399;83;20133;-70
2022/05/14 00:28:29;;;;;;;;;;;;;;;13.10;100.00;99238.96;1728113;83;20164;-70
2022/05/14 00:30:55;;;;;;;;;;;;;;;13.06;100.00;99220.04;1728353;83;20168;-69
2022/05/14 00:33:22;;;;;;;;;;;;;;;13.05;100.00;99206.17;1728321;83;20133;-69
2022/05/14 00:35:49;;;;;;;;;;;;;;;13.00;100.00;99190.20;1728587;83;20141;-70
2022/05/14 00:38:16;;;;;;;;;;;;;;;12.91;100.00;99171.41;1728479;83;20140;-69
2022/05/14 00:40:46;;;;;;;;;;;;;;;12.86;100.00;99145.95;1728506;83;20153;-69
2022/05/14 00:43:13;;;;;;;;;;;;;;;12.79;100.00;99119.34;1673600;85;20132;-69
2022/05/14 00:45:41;;;;;;;;;;;;;;;12.72;100.00;99092.20;1673994;86;20142;-69
2022/05/14 00:48:09;;;;;;;;;;;;;;;12.66;100.00;99054.55;1673811;86;20130;-69
2022/05/14 00:50:39;;;;;;;;;;;;;;;12.63;100.00;99018.34;1673806;86;20131;-69
2022/05/14 00:53:23;;;;;;;;;;;;;;;12.60;100.00;99002.48;1673501;86;20116;-70
2022/05/14 00:55:50;;;;;;;;;;;;;;;12.57;100.00;98992.58;1683484;84;20147;-67
2022/05/14 00:58:21;;;;;;;;;;;;;;;12.57;100.00;98968.17;1674984;85;20426;-69
2022/05/14 01:00:48;;;;;;;;;;;;;;;12.55;100.00;98953.47;1639434;87;20172;-69
2022/05/14 01:03:15;;;;;;;;;;;;;;;12.50;100.00;98927.50;1639721;88;20156;-69
2022/05/14 01:05:43;;;;;;;;;;;;;;;12.45;100.00;98903.75;1639542;88;20112;-69
2022/05/14 01:08:09;;;;;;;;;;;;;;;12.44;100.00;98884.45;1639648;88;20096;-70
2022/05/14 01:10:39;;;;;;;;;;;;;;;12.44;100.00;98875.50;1639806;87;20116;-69
2022/05/14 01:13:06;;;;;;;;;;;;;;;12.45;100.00;98860.38;1639737;88;20111;-68
2022/05/14 01:15:40;;;;;;;;;;;;;;;12.44;100.00;98845.67;1639672;88;20116;-69
2022/05/14 01:18:07;;;;;;;;;;;;;;;12.43;100.00;98827.23;1639877;88;20120;-69
2022/05/14 01:20:35;;;;;;;;;;;;;;;12.44;100.00;98805.83;1639806;88;20410;-69
2022/05/14 01:23:12;;;;;;;;;;;;;;;12.44;100.00;98780.61;1639723;88;20116;-69
2022/05/14 01:28:46;;;;;;;;;;;;;;;12.40;100.00;98725.17;1594294;90;20171;-69
2022/05/14 01:31:12;;;;;;;;;;;;;;;12.35;100.00;98693.27;1594593;90;20120;-69
2022/05/14 01:33:40;;;;;;;;;;;;;;;12.32;100.00;98676.08;1594317;90;20124;-68
2022/05/14 01:36:07;;;;;;;;;;;;;;;12.29;100.00;98639.95;1594611;90;20401;-68
2022/05/14 01:38:35;;;;;;;;;;;;;;;12.26;100.00;98615.98;1594311;90;20120;-68
2022/05/14 01:41:02;;;;;;;;;;;;;;;12.20;100.00;98578.39;1625363;88;20122;-67
2022/05/14 01:43:29;;;;;;;;;;;;;;;12.15;100.00;98545.69;1627359;88;20145;-68
2022/05/14 01:45:57;;;;;;;;;;;;;;;12.08;100.00;98512.39;1627672;88;20406;-68
2022/05/14 01:48:24;;;;;;;;;;;;;;;12.03;100.00;98475.11;1627601;88;20101;-69
2022/05/14 01:50:51;;;;;;;;;;;;;;;11.99;100.00;98433.77;1606106;88;20113;-68
2022/05/14 01:53:18;;;;;;;;;;;;;;;11.96;100.00;98402.55;1627333;88;20311;-69
2022/05/14 01:55:45;;;;;;;;;;;;;;;11.94;100.00;98368.91;1625708;87;20122;-68
2022/05/14 02:00:59;;;;;;;;;;;;;;;11.93;100.00;98278.39;1647593;87;20139;-69
2022/05/14 02:03:26;;;;;;;;;;;;;;;11.90;100.00;98203.84;1637227;88;20401;-68
2022/05/14 02:05:53;;;;;;;;;;;;;;;11.87;100.00;98152.80;1644745;87;20115;-68
2022/05/14 02:08:20;;;;;;;;;;;;;;;11.87;100.00;98108.11;1682168;85;20117;-68
2022/05/14 02:10:47;;;;;;;;;;;;;;;11.87;100.00;97722.23;1625479;87;20119;-67
2022/05/14 02:13:15;;;;;;;;;;;;;;;11.88;100.00;97639.95;1637630;88;20103;-67
2022/05/14 02:15:43;;;;;;;;;;;;;;;11.84;100.00;97530.46;1644864;87;20120;-68
2022/05/14 02:18:11;;;;;;;;;;;;;;;11.81;100.00;96950.27;1682416;85;20133;-67
2022/05/14 02:20:38;;;;;;;;;;;;;;;11.80;100.00;96702.29;1647069;87;20112;-68
2022/05/14 02:23:05;;;;;;;;;;;;;;;11.80;100.00;96548.55;1672555;85;20400;-66
2022/05/14 02:25:32;;;;;;;;;;;;;;;11.77;100.00;96409.97;1625423;85;20111;-68
2022/05/14 02:27:59;;;;;;;;;;;;;;;11.76;100.00;96369.09;1698731;85;20122;-67
2022/05/14 02:30:26;;;;;;;;;;;;;;;11.78;100.00;96361.52;1698896;85;20104;-66
2022/05/14 02:32:53;;;;;;;;;;;;;;;11.78;100.00;96353.39;1700299;84;20099;-67
2022/05/14 02:35:20;;;;;;;;;;;;;;;11.82;100.00;96342.03;1700354;84;20103;-68
2022/05/14 02:37:47;;;;;;;;;;;;;;;11.82;100.00;96341.48;1670690;84;20135;-67
2022/05/14 02:40:14;;;;;;;;;;;;;;;11.82;100.00;96352.31;1700221;84;20143;-68
2022/05/14 02:42:42;;;;;;;;;;;;;;;11.84;100.00;96346.63;1700207;83;20158;-69
2022/05/14 02:45:09;;;;;;;;;;;;;;;11.83;100.00;96339.58;1700591;84;20135;-66
2022/05/14 02:47:36;;;;;;;;;;;;;;;11.84;100.00;96335.80;1700402;84;20099;-68
2022/05/14 02:50:04;;;;;;;;;;;;;;;11.84;100.00;96323.62;1700237;83;20157;-68
2022/05/14 02:52:30;;;;;;;;;;;;;;;11.81;100.00;96330.92;1700181;84;20103;-67
2022/05/14 02:54:57;;;;;;;;;;;;;;;11.81;100.00;96329.05;1700369;83;20103;-67
2022/05/14 02:57:24;;;;;;;;;;;;;;;11.84;100.00;96332.55;1704023;84;20107;-67
2022/05/14 02:59:51;;;;;;;;;;;;;;;11.83;100.00;96320.12;1704963;83;20122;-68
2022/05/14 03:02:18;;;;;;;;;;;;;;;11.83;100.00;96329.59;1677002;84;20106;-67
2022/05/14 03:04:47;;;;;;;;;;;;;;;11.82;100.00;96336.07;1705018;84;20409;-67
2022/05/14 03:07:15;;;;;;;;;;;;;;;11.81;100.00;96337.17;1704854;84;20408;-68
2022/05/14 03:09:42;;;;;;;;;;;;;;;11.77;100.00;96336.90;1704679;84;20127;-67
2022/05/14 03:12:12;;;;;;;;;;;;;;;11.76;100.00;96339.87;1704915;84;20126;-66
2022/05/14 03:14:40;;;;;;;;;;;;;;;11.77;100.00;96347.72;1704665;84;20127;-68
2022/05/14 03:17:07;;;;;;;;;;;;;;;11.74;100.00;96346.90;1677075;84;20180;-66
2022/05/14 03:19:34;;;;;;;;;;;;;;;11.72;100.00;96351.77;1704881;84;20102;-66
2022/05/14 03:22:03;;;;;;;;;;;;;;;11.72;100.00;96350.94;1705006;84;20103;-68
2022/05/14 03:24:30;;;;;;;;;;;;;;;11.73;100.00;96356.09;1677050;84;20103;-66
2022/05/14 03:26:57;;;;;;;;;;;;;;;11.72;100.00;96365.30;1704953;84;20107;-68
2022/05/14 03:29:24;;;;;;;;;;;;;;;11.71;100.00;96377.75;1705055;84;20416;-67
2022/05/14 03:31:50;;;;;;;;;;;;;;;11.70;100.00;96377.46;1701993;84;20103;-68
2022/05/14 03:34:17;;;;;;;;;;;;;;;11.68;100.00;96380.43;1699540;83;20111;-67
2022/05/14 03:36:44;;;;;;;;;;;;;;;11.69;100.00;96373.95;1699637;84;20107;-67
2022/05/14 03:39:11;;;;;;;;;;;;;;;11.68;100.00;96375.02;1699563;84;20156;-68
2022/05/14 03:41:40;;;;;;;;;;;;;;;11.64;100.00;96376.64;1699312;83;20175;-69
2022/05/14 03:44:07;;;;;;;;;;;;;;;11.62;100.00;96382.06;1671608;85;20143;-69
2022/05/14 03:46:34;;;;;;;;;;;;;;;11.64;100.00;96382.05;1699716;83;20099;-69
2022/05/14 03:49:01;;;;;;;;;;;;;;;11.67;100.00;96369.35;1699645;83;20415;-68
2022/05/14 03:51:29;;;;;;;;;;;;;;;11.72;100.00;96357.70;1699444;84;20123;-69
2022/05/14 03:53:57;;;;;;;;;;;;;;;11.71;100.00;96358.25;1671763;85;20408;-68
2022/05/14 03:56:24;;;;;;;;;;;;;;;11.72;100.00;96355.00;1698170;84;20132;-68
2022/05/14 03:58:51;;;;;;;;;;;;;;;11.72;100.00;96353.13;1694822;85;20139;-68
2022/05/14 04:01:18;;;;;;;;;;;;;;;11.73;100.00;96353.93;1694990;85;20140;-69
2022/05/14 04:03:45;;;;;;;;;;;;;;;11.74;100.00;96346.90;1665435;85;20135;-68
2022/05/14 04:06:12;;;;;;;;;;;;;;;11.81;100.00;96330.92;1694882;85;20139;-68
2022/05/14 04:08:39;;;;;;;;;;;;;;;11.84;100.00;96316.86;1695190;85;20130;-70
2022/05/14 04:11:07;;;;;;;;;;;;;;;11.86;100.00;96316.05;1695051;85;20384;-70
2022/05/14 04:13:35;;;;;;;;;;;;;;;11.88;100.00;96309.30;1694835;85;20099;-68
2022/05/14 04:16:03;;;;;;;;;;;;;;;11.91;100.00;96316.88;1694963;85;20135;-70
2022/05/14 04:18:30;;;;;;;;;;;;;;;11.96;100.00;96328.27;1695118;85;20435;-69
2022/05/14 04:20:58;;;;;;;;;;;;;;;12.05;100.00;96329.89;1695026;85;20108;-69
2022/05/14 04:23:25;;;;;;;;;;;;;;;12.11;100.00;96318.80;1695115;85;20088;-69
2022/05/14 04:25:52;;;;;;;;;;;;;;;12.14;100.00;96304.69;1695244;83;20151;-70
2022/05/14 04:28:20;;;;;;;;;;;;;;;12.21;100.00;96303.61;1694788;85;20432;-70
2022/05/14 04:30:49;;;;;;;;;;;;;;;12.26;100.00;96299.00;1694785;85;20144;-70
2022/05/14 04:33:17;;;;;;;;;;;;;;;12.29;100.00;96309.30;1695015;85;20165;-68
2022/05/14 04:35:44;;;;;;;;;;;;;;;12.30;100.00;96335.83;1696214;85;20111;-70
2022/05/14 04:38:11;;;;;;;;;;;;;;;12.37;100.00;96340.42;1695077;83;20140;-69
2022/05/14 04:40:38;;;;;;;;;;;;;;;12.46;100.00;96343.39;1694839;83;20135;-69
2022/05/14 04:43:07;;;;;;;;;;;;;;;12.54;100.00;96345.56;1695104;85;20112;-69
2022/05/14 04:45:35;;;;;;;;;;;;;;;12.59;100.00;96343.36;1695055;85;20124;-67
2022/05/14 04:48:03;;;;;;;;;;;;;;;12.69;100.00;96357.70;1695013;85;20099;-70
2022/05/14 04:50:30;;;;;;;;;;;;;;;12.81;100.00;96354.70;1694883;85;20139;-70
2022/05/14 04:52:58;;;;;;;;;;;;;;;12.82;100.00;96387.52;1695129;85;20103;-70
2022/05/14 04:55:24;;;;;;;;;;;;;;;12.77;100.00;96418.69;1665338;85;20131;-69
2022/05/14 04:57:52;;;;;;;;;;;;;;;12.74;100.00;96463.95;1694760;85;20115;-67
2022/05/14 05:00:19;;;;;;;;;;;;;;;12.74;100.00;96501.91;1695044;85;20258;-72
2022/05/14 05:05:31;;;;;;;;;;;;;;;12.70;100.00;96561.82;1695046;83;20131;-71
2022/05/14 05:07:58;;;;;;;;;;;;;;;12.62;100.00;96603.80;1695067;85;20103;-70
2022/05/14 05:10:26;;;;;;;;;;;;;;;12.57;100.00;96640.92;1694856;85;20099;-67
2022/05/14 05:12:53;;;;;;;;;;;;;;;12.53;100.00;96665.03;1694420;84;20248;-68
2022/05/14 05:15:20;;;;;;;;;;;;;;;12.57;100.00;96681.57;1666096;85;20147;-68
2022/05/14 05:17:47;;;;;;;;;;;;;;;12.59;100.00;96683.47;1665313;85;20426;-69
2022/05/14 05:20:14;;;;;;;;;;;;;;;12.66;100.00;96689.45;1700181;84;20107;-67
2022/05/14 05:22:40;;;;;;;;;;;;;;;12.67;100.00;96698.69;1666223;86;20125;-69
2022/05/14 05:25:09;;;;;;;;;;;;;;;12.72;100.00;96705.48;1700154;84;20103;-69
2022/05/14 05:27:36;;;;;;;;;;;;;;;12.76;100.00;96717.95;1700107;84;20419;-68
2022/05/14 05:30:04;;;;;;;;;;;;;;;12.79;100.00;96728.28;1700234;84;20115;-70
2022/05/14 05:32:31;;;;;;;;;;;;;;;12.85;100.00;96729.91;1666275;86;20127;-68
2022/05/14 05:34:58;;;;;;;;;;;;;;;12.98;100.00;96733.20;1700114;84;20137;-68
2022/05/14 05:37:24;;;;;;;;;;;;;;;13.09;100.00;96726.73;1666193;85;20102;-68
2022/05/14 05:39:51;;;;;;;;;;;;;;;13.17;100.00;96730.81;1700207;84;20142;-67
2022/05/14 05:42:18;;;;;;;;;;;;;;;13.18;100.00;96741.39;1666359;86;20102;-67
2022/05/14 05:44:46;;;;;;;;;;;;;;;13.14;100.00;96764.73;1666458;86;20122;-67
2022/05/14 05:47:13;;;;;;;;;;;;;;;13.10;100.00;96805.13;1665595;86;20141;-68
2022/05/14 05:49:40;;;;;;;;;;;;;;;13.09;100.00;96827.09;1665409;86;20485;-67
2022/05/14 05:52:07;;;;;;;;;;;;;;;13.08;100.00;96854.77;1665525;85;20103;-67
2022/05/14 05:57:19;;;;;;;;;;;;;;;13.04;100.00;96882.67;1683499;84;20954;-67
2022/05/14 05:59:47;;;;;;;;;;;;;;;13.01;100.00;96902.98;1699270;83;20190;-68
2022/05/14 06:02:13;;;;;;;;;;;;;;;13.02;100.00;96911.41;1704419;84;20127;-69
2022/05/14 06:04:42;;;;;;;;;;;;;;;13.09;100.00;96913.34;1704497;84;20143;-68
2022/05/14 06:07:09;;;;;;;;;;;;;;;13.20;100.00;96912.05;1704166;84;20151;-69
2022/05/14 06:09:36;;;;;;;;;;;;;;;13.27;100.00;96918.04;1703817;84;20094;-68
2022/05/14 06:12:04;;;;;;;;;;;;;;;13.32;100.00;96926.23;1703074;84;20114;-69
2022/05/14 06:14:31;;;;;;;;;;;;;;;13.37;100.00;96931.69;1704677;84;20123;-67
2022/05/14 06:16:58;;;;;;;;;;;;;;;13.37;100.00;96954.76;1703677;84;20143;-67
2022/05/14 06:19:25;;;;;;;;;;;;;;;13.38;100.00;96979.98;1704589;84;20103;-68
2022/05/14 06:21:52;;;;;;;;;;;;;;;13.38;100.00;97003.86;1704127;84;20142;-67
2022/05/14 06:24:19;;;;;;;;;;;;;;;13.38;100.00;97031.00;1704898;84;20130;-68
2022/05/14 06:26:46;;;;;;;;;;;;;;;13.43;100.00;97054.66;1705059;84;20142;-69
2022/05/14 06:29:13;;;;;;;;;;;;;;;13.56;100.00;97052.81;1702689;84;20162;-69
2022/05/14 06:31:39;;;;;;;;;;;;;;;13.75;100.00;97059.16;1703399;84;20135;-67
2022/05/14 06:34:06;;;;;;;;;;;;;;;13.77;100.00;97105.88;1728681;83;20132;-67
2022/05/14 06:36:33;;;;;;;;;;;;;;;13.74;100.00;97202.80;1728228;82;20163;-67
2022/05/14 06:39:01;;;;;;;;;;;;;;;13.64;100.00;97298.58;1728668;82;20144;-69
2022/05/14 06:41:28;;;;;;;;;;;;;;;13.58;100.00;97378.33;1728868;82;20175;-67
2022/05/14 06:43:56;;;;;;;;;;;;;;;13.54;100.00;97430.14;1729499;82;20420;-68
2022/05/14 06:46:22;;;;;;;;;;;;;;;13.53;100.00;97451.05;1728954;83;20155;-67
2022/05/14 06:48:51;;;;;;;;;;;;;;;13.54;100.00;97467.60;1729268;83;20160;-68
2022/05/14 06:51:20;;;;;;;;;;;;;;;13.54;100.00;97499.38;1728849;82;20495;-67
2022/05/14 06:53:47;;;;;;;;;;;;;;;13.55;100.00;97509.17;1729152;82;20191;-69
2022/05/14 06:56:14;;;;;;;;;;;;;;;13.58;100.00;97535.80;1728822;83;20140;-67
2022/05/14 06:58:41;;;;;;;;;;;;;;;13.55;100.00;97573.78;1729183;82;20269;-66
2022/05/14 07:01:08;;;;;;;;;;;;;;;13.55;100.00;97594.69;1729377;83;20459;-67
2022/05/14 07:09:19;;;;;;;;;;;;;;;13.48;100.00;97678.47;1726858;83;20145;-68
2022/05/14 07:11:47;;;;;;;;;;;;;;;13.45;100.00;97719.67;1742494;82;20229;-67
2022/05/14 07:14:16;;;;;;;;;;;;;;;13.47;100.00;97722.15;1739374;82;20173;-68
2022/05/14 07:16:44;;;;;;;;;;;;;;;13.48;100.00;97737.37;1742239;82;20189;-66
2022/05/14 07:19:11;;;;;;;;;;;;;;;13.51;100.00;97740.97;1743520;82;20307;-67
2022/05/14 07:21:39;;;;;;;;;;;;;;;13.51;100.00;97758.61;1734855;82;20190;-67
2022/05/14 07:24:07;;;;;;;;;;;;;;;13.50;100.00;97781.93;1753730;81;20176;-66
2022/05/14 07:26:36;;;;;;;;;;;;;;;13.49;100.00;97808.23;1630474;87;20209;-66
2022/05/14 07:29:07;;;;;;;;;;;;;;;13.40;100.00;97841.77;1637170;87;20155;-66
2022/05/14 07:31:35;;;;;;;;;;;;;;;13.32;100.00;97859.78;1616924;87;20194;-66
2022/05/14 07:34:02;;;;;;;;;;;;;;;13.29;100.00;97863.76;1609800;88;20159;-65
2022/05/14 07:36:36;;;;;;;;;;;;;;;13.29;100.00;97845.30;1619970;87;20173;-67
2022/05/14 07:39:04;;;;;;;;;;;;;;;13.30;100.00;97836.92;1558257;90;20211;-67
2022/05/14 07:41:32;;;;;;;;;;;;;;;13.34;100.00;97825.62;1570721;91;20150;-67
2022/05/14 07:44:00;;;;;;;;;;;;;;;13.34;100.00;97813.41;1554166;91;20198;-67
2022/05/14 07:46:30;;;;;;;;;;;;;;;13.36;100.00;97808.02;1552909;91;20461;-67
2022/05/14 07:48:57;;;;;;;;;;;;;;;13.43;100.00;97784.25;1554151;91;20130;-67
2022/05/14 07:51:23;;;;;;;;;;;;;;;13.48;100.00;97759.91;1559855;91;20170;-67
2022/05/14 07:53:50;;;;;;;;;;;;;;;13.54;100.00;97736.38;1556131;91;20201;-67
2022/05/14 07:56:17;;;;;;;;;;;;;;;13.55;100.00;97731.80;1554739;91;20150;-67
2022/05/14 07:58:44;;;;;;;;;;;;;;;13.55;100.00;97724.46;1550638;91;20459;-67
2022/05/14 08:01:11;;;;;;;;;;;;;;;13.60;100.00;97717.76;1549580;91;20162;-68
2022/05/14 08:03:39;;;;;;;;;;;;;;;13.71;100.00;97705.16;1565436;91;20123;-69
2022/05/14 08:06:08;;;;;;;;;;;;;;;13.87;100.00;97673.61;1554923;92;20142;-68
2022/05/14 08:08:36;;;;;;;;;;;;;;;14.00;100.00;97653.41;1570259;90;20140;-68
2022/05/14 08:11:03;;;;;;;;;;;;;;;14.06;100.00;97656.49;1552349;91;20153;-68
2022/05/14 08:13:34;;;;;;;;;;;;;;;14.06;100.00;97689.09;1523026;93;20298;-68
2022/05/14 08:16:00;;;;;;;;;;;;;;;14.00;100.00;97737.09;1544576;91;20438;-68
2022/05/14 08:18:26;;;;;;;;;;;;;;;13.95;100.00;97791.37;1557515;92;20194;-68
2022/05/14 08:20:54;;;;;;;;;;;;;;;13.87;100.00;97836.59;1553124;91;20160;-69
2022/05/14 08:26:06;;;;;;;;;;;;;;;13.65;100.00;97905.21;1639290;87;20115;-68
2022/05/14 08:28:34;;;;;;;;;;;;;;;13.57;100.00;97912.37;1628736;87;20180;-68
2022/05/14 08:31:01;;;;;;;;;;;;;;;13.48;100.00;97894.83;1642678;87;20202;-70
2022/05/14 08:33:28;;;;;;;;;;;;;;;13.46;100.00;97873.35;1622010;87;20389;-68
2022/05/14 08:35:55;;;;;;;;;;;;;;;13.43;100.00;97843.16;1642902;87;20230;-67
2022/05/14 08:38:23;;;;;;;;;;;;;;;13.45;100.00;97819.30;1637564;87;20167;-68
2022/05/14 08:40:58;;;;;;;;;;;;;;;13.48;100.00;97783.53;1634499;87;20190;-68
2022/05/14 08:43:46;;;;;;;;;;;;;;;13.48;100.00;97760.45;1738402;81;20115;-68
2022/05/14 08:46:14;;;;;;;;;;;;;;;13.48;100.00;97745.52;1735781;81;20499;-68
2022/05/14 08:48:41;;;;;;;;;;;;;;;13.51;100.00;97721.96;1732422;81;20097;-68
2022/05/14 08:51:18;;;;;;;;;;;;;;;13.50;100.00;97709.45;1730450;81;20189;-68
2022/05/14 08:53:47;;;;;;;;;;;;;;;13.51;100.00;97682.59;1725646;81;20139;-69
2022/05/14 08:56:26;;;;;;;;;;;;;;;13.64;100.00;97642.05;1711606;81;20132;-69
2022/05/14 08:59:23;;;;;;;;;;;;;;;13.82;100.00;97590.70;1746537;81;20092;-69
2022/05/14 09:01:51;;;;;;;;;;;;;;;14.04;100.00;97530.39;1756322;81;20132;-69
2022/05/14 09:04:20;;;;;;;;;;;;;;;14.22;100.00;97482.21;1732809;81;21717;-69
2022/05/14 09:06:50;;;;;;;;;;;;;;;14.41;100.00;97475.32;1771720;80;20097;-68
2022/05/14 09:09:17;;;;;;;;;;;;;;;14.58;100.00;97475.20;1773804;80;20108;-68
2022/05/14 09:11:52;;;;;;;;;;;;;;;14.71;100.00;97488.90;1783129;79;20103;-70
2022/05/14 09:14:27;;;;;;;;;;;;;;;14.86;100.00;97507.25;1700015;84;20140;-69
2022/05/14 09:17:10;;;;;;;;;;;;;;;15.00;100.00;97507.63;1700528;84;20139;-69
2022/05/14 09:19:39;;;;;;;;;;;;;;;15.17;100.00;97516.98;1696747;84;20178;-70
2022/05/14 09:22:11;;;;;;;;;;;;;;;15.33;100.00;97538.31;1650654;87;20132;-70
2022/05/14 09:24:44;;;;;;;;;;;;;;;15.37;100.00;97607.52;1649890;87;20116;-70
2022/05/14 09:27:14;;;;;;;;;;;;;;;15.34;100.00;97678.27;1650444;87;20107;-71
2022/05/14 09:29:43;;;;;;;;;;;;;;;15.23;100.00;97769.11;1590135;90;20112;-70
2022/05/14 09:32:20;;;;;;;;;;;;;;;15.10;100.00;97838.90;1589108;90;20112;-70
2022/05/14 09:34:47;;;;;;;;;;;;;;;15.09;100.00;97878.91;1589208;90;20120;-72
2022/05/14 09:37:20;;;;;;;;;;;;;;;15.19;100.00;97894.53;1589429;90;20120;-70
2022/05/14 09:39:57;;;;;;;;;;;;;;;15.17;100.00;97937.00;1589207;90;20120;-70
2022/05/14 09:42:32;;;;;;;;;;;;;;;15.10;100.00;97976.34;1588928;90;20128;-72
2022/05/14 09:44:59;;;;;;;;;;;;;;;15.00;100.00;98013.23;1586281;90;20219;-71
2022/05/14 09:47:28;;;;;;;;;;;;;;;14.89;100.00;98037.30;1589167;90;20114;-72
2022/05/14 09:50:02;;;;;;;;;;;;;;;14.74;100.00;98061.52;1589332;90;20120;-73
2022/05/14 09:52:32;;;;;;;;;;;;;;;14.59;100.00;98088.75;1564319;92;20485;-72
2022/05/14 09:55:01;;;;;;;;;;;;;;;14.53;100.00;98088.33;1564496;92;20130;-75
2022/05/14 09:57:41;;;;;;;;;;;;;;;14.54;100.00;98072.31;1562982;92;20126;-74
2022/05/14 10:00:38;;;;;;;;;;;;;;;14.58;100.00;98056.36;1553881;92;20172;-73
2022/05/14 10:03:27;;;;;;;;;;;;;;;14.69;100.00;98024.17;1553790;92;20152;-73
2022/05/14 10:06:15;;;;;;;;;;;;;;;14.81;100.00;97984.64;1554688;92;20132;-70
2022/05/14 10:08:50;;;;;;;;;;;;;;;14.91;100.00;97954.03;1551925;92;20145;-72
2022/05/14 10:11:23;;;;;;;;;;;;;;;14.98;100.00;97945.18;1540637;93;20378;-72
2022/05/14 10:14:03;;;;;;;;;;;;;;;15.00;100.00;97929.42;1547286;93;20154;-72
2022/05/14 10:16:39;;;;;;;;;;;;;;;14.89;100.00;97951.59;1546957;93;20167;-71
2022/05/14 10:19:25;;;;;;;;;;;;;;;14.87;100.00;97961.05;1494322;96;20156;-73
2022/05/14 10:22:19;;;;;;;;;;;;;;;14.81;100.00;97969.14;1486426;96;20186;-72
2022/05/14 10:28:12;;;;;;;;;;;;;;;14.79;100.00;97978.09;1489359;96;20148;-71
2022/05/14 10:30:55;;;;;;;;;;;;;;;14.91;100.00;97975.80;1489730;96;20192;-71
2022/05/14 10:33:28;;;;;;;;;;;;;;;15.01;100.00;97955.55;1510305;94;20403;-73
2022/05/14 10:36:04;;;;;;;;;;;;;;;15.19;100.00;97947.09;1521455;94;20144;-73
2022/05/14 10:38:37;;;;;;;;;;;;;;;15.51;100.00;97904.70;1521490;93;20168;-72
2022/05/14 10:41:06;;;;;;;;;;;;;;;15.74;100.00;97899.02;1521327;94;20474;-72
2022/05/14 10:44:00;;;;;;;;;;;;;;;15.92;100.00;97919.63;1562228;92;20151;-73
2022/05/14 10:46:28;;;;;;;;;;;;;;;16.11;100.00;97935.08;1547174;93;20129;-73
2022/05/14 10:48:57;;;;;;;;;;;;;;;16.21;100.00;97975.23;1540233;93;20113;-75
2022/05/14 10:51:30;;;;;;;;;;;;;;;16.17;100.00;98029.20;1547257;93;20124;-73
2022/05/14 10:53:59;;;;;;;;;;;;;;;16.14;100.00;98087.77;1540376;92;20120;-69
2022/05/14 10:56:28;;;;;;;;;;;;;;;16.02;100.00;98156.04;1570996;90;20100;-68
2022/05/14 10:59:05;;;;;;;;;;;;;;;16.02;100.00;98208.38;1593741;89;20116;-71
2022/05/14 11:01:46;;;;;;;;;;;;;;;15.99;100.00;98256.58;1602239;89;20179;-69
2022/05/14 11:04:25;;;;;;;;;;;;;;;15.98;100.00;98285.74;1622488;88;20146;-71
2022/05/14 11:07:01;;;;;;;;;;;;;;;15.88;100.00;98310.11;1624250;87;20489;-70
2022/05/14 11:09:47;;;;;;;;;;;;;;;15.76;100.00;98322.47;1656145;87;20159;-68
2022/05/14 11:12:22;;;;;;;;;;;;;;;15.69;100.00;98332.67;1643122;87;20132;-68
2022/05/14 11:14:54;;;;;;;;;;;;;;;15.59;100.00;98338.75;1643615;87;20104;-69
2022/05/14 11:17:32;;;;;;;;;;;;;;;15.49;100.00;98340.77;1643256;87;20111;-70
2022/05/14 11:20:08;;;;;;;;;;;;;;;15.47;100.00;98338.80;1643393;87;20104;-70
2022/05/14 11:22:46;;;;;;;;;;;;;;;15.53;100.00;98330.21;1643468;87;20491;-70
2022/05/14 11:25:20;;;;;;;;;;;;;;;15.61;100.00;98317.53;1605330;89;20142;-69
2022/05/14 11:28:11;;;;;;;;;;;;;;;15.60;100.00;98327.31;1605258;89;20110;-71
2022/05/14 11:30:47;;;;;;;;;;;;;;;15.54;100.00;98339.47;1580281;88;20173;-69
2022/05/14 11:33:28;;;;;;;;;;;;;;;15.48;100.00;98347.28;1603845;90;20103;-70
2022/05/14 11:36:00;;;;;;;;;;;;;;;15.41;100.00;98364.84;1604070;90;20415;-68
2022/05/14 11:38:31;;;;;;;;;;;;;;;15.31;100.00;98377.72;1603728;90;20123;-70
2022/05/14 11:41:03;;;;;;;;;;;;;;;15.30;100.00;98375.54;1603989;90;20139;-67
2022/05/14 11:43:38;;;;;;;;;;;;;;;15.27;100.00;98373.30;1600241;90;20167;-68
2022/05/14 11:46:23;;;;;;;;;;;;;;;15.21;100.00;98367.98;1602350;90;20146;-68
2022/05/14 11:49:10;;;;;;;;;;;;;;;15.19;100.00;98359.54;1603549;90;20146;-68
2022/05/14 11:51:42;;;;;;;;;;;;;;;15.22;100.00;98353.31;1603403;90;20294;-69
2022/05/14 11:54:14;;;;;;;;;;;;;;;15.31;100.00;98333.61;1603836;90;20111;-68
2022/05/14 11:57:01;;;;;;;;;;;;;;;15.45;100.00;98304.72;1603913;90;20158;-67
2022/05/14 11:59:56;;;;;;;;;;;;;;;15.55;100.00;98289.93;1590585;89;20408;-68
2022/05/14 12:02:26;;;;;;;;;;;;;;;15.60;100.00;98285.94;1577143;90;20146;-68
2022/05/14 12:04:55;;;;;;;;;;;;;;;15.61;100.00;98269.04;1599250;90;20132;-68
2022/05/14 12:07:35;;;;;;;;;;;;;;;15.61;100.00;98275.30;1594542;89;20119;-68
2022/05/14 12:10:25;;;;;;;;;;;;;;;15.64;100.00;98272.64;1593066;90;20115;-68
2022/05/14 12:12:55;;;;;;;;;;;;;;;15.66;100.00;98265.04;1593312;90;20391;-67
2022/05/14 12:15:24;;;;;;;;;;;;;;;15.62;100.00;98274.80;1593104;90;20106;-67
2022/05/14 12:17:55;;;;;;;;;;;;;;;15.59;100.00;98281.55;1593238;90;20110;-66
2022/05/14 12:20:27;;;;;;;;;;;;;;;15.54;100.00;98280.91;1608517;89;20155;-64
2022/05/14 12:22:56;;;;;;;;;;;;;;;15.44;100.00;98278.55;1538105;93;20433;-68
2022/05/14 12:25:42;;;;;;;;;;;;;;;15.41;100.00;98271.70;1539202;92;20121;-67
2022/05/14 12:28:22;;;;;;;;;;;;;;;15.47;100.00;98263.09;1512752;95;20131;-68
2022/05/14 12:33:39;;;;;;;;;;;;;;;15.73;100.00;98223.47;1537181;93;20443;-68
2022/05/14 12:36:08;;;;;;;;;;;;;;;15.97;100.00;98201.48;1549744;91;20173;-68
2022/05/14 12:38:35;;;;;;;;;;;;;;;16.08;100.00;98201.39;1560214;91;20116;-69
2022/05/14 12:41:03;;;;;;;;;;;;;;;16.23;100.00;98192.58;1583169;89;20416;-67
2022/05/14 12:43:30;;;;;;;;;;;;;;;16.30;100.00;98198.66;1583007;91;20105;-66
2022/05/14 12:46:04;;;;;;;;;;;;;;;16.37;100.00;98216.76;1583025;89;20125;-68
2022/05/14 12:48:32;;;;;;;;;;;;;;;16.35;100.00;98235.28;1583178;89;20113;-66
2022/05/14 12:50:59;;;;;;;;;;;;;;;16.35;100.00;98252.47;1582919;91;20397;-69
2022/05/14 12:53:34;;;;;;;;;;;;;;;16.36;100.00;98259.58;1583041;89;20150;-67
2022/05/14 12:56:01;;;;;;;;;;;;;;;16.39;100.00;98274.61;1583005;89;20122;-67
2022/05/14 12:58:30;;;;;;;;;;;;;;;16.57;100.00;98265.28;1583081;89;20159;-68
2022/05/14 13:00:57;;;;;;;;;;;;;;;16.69;100.00;98268.72;1563079;91;20133;-68
2022/05/14 13:03:31;;;;;;;;;;;;;;;16.77;100.00;98281.08;1583037;91;20126;-69
2022/05/14 13:06:01;;;;;;;;;;;;;;;16.88;100.00;98283.72;1612264;89;20118;-69
2022/05/14 13:08:28;;;;;;;;;;;;;;;17.00;100.00;98297.79;1586467;90;20156;-67
2022/05/14 13:10:58;;;;;;;;;;;;;;;17.21;100.00;98294.20;1586048;91;20267;-69
2022/05/14 13:13:39;;;;;;;;;;;;;;;17.41;100.00;98289.47;1586321;91;20121;-69
2022/05/14 13:16:19;;;;;;;;;;;;;;;17.53;100.00;98312.55;1586133;91;20113;-69
2022/05/14 13:18:54;;;;;;;;;;;;;;;17.55;100.00;98345.09;1590490;89;20111;-70